Terminal Aerodrome Forecast
Issued by NWS Atlanta, GA

Home | Current Version | Previous Version | Text Only | Print | Product List | Glossary On
Versions: 1 2 3 4 5 6 7 8 9 10 11 12 13 14 15 16 17 18 19 20 21 22 23 24 25 26 27 28 29 30 31 32 33 34 35 36 37 38
933
FTUS42 KFFC 240759 AAA
TAFATL
TAF AMD
KATL 240759Z 2408/2512 25008KT P6SM VCSH BKN005 BKN045
     FM241400 26008KT P6SM VCSH BKN012
     FM241600 27007KT P6SM VCSH OVC025
     FM241800 28008KT P6SM BKN040 PROB30 2418/2422 5SM -TSRA
      BKN030CB
     FM250000 30007KT P6SM BKN045
     FM250600 32010KT P6SM SCT050 BKN080=

USA.gov is the U.S. government's official web portal to all federal, state and local government web resources and services.